createdAt,value
2023-05-25T00:00:53.786Z,98717.81
2023-05-25T00:03:31.438Z,98725.59
2023-05-25T00:06:01.897Z,98717.88
2023-05-25T00:08:29.412Z,98717.06
2023-05-25T00:10:56.066Z,98716.47
2023-05-25T00:13:22.615Z,98722.06
2023-05-25T00:15:49.168Z,98723.97
2023-05-25T00:18:15.722Z,98722.81
2023-05-25T00:20:44.647Z,98719.69
2023-05-25T00:23:11.207Z,98720.34
2023-05-25T00:25:37.749Z,98715.44
2023-05-25T00:28:04.579Z,98714.44
2023-05-25T00:30:31.167Z,98723.31
2023-05-25T00:33:01.255Z,98718.22
2023-05-25T00:35:27.936Z,98718.06
2023-05-25T00:37:54.459Z,98711.66
2023-05-25T00:40:21.581Z,98715.59
2023-05-25T00:42:48.101Z,98711.22
2023-05-25T00:45:14.649Z,98714.53
2023-05-25T00:47:43.328Z,98715.91
2023-05-25T00:50:15.448Z,98713.69
2023-05-25T00:52:42.092Z,98715.56
2023-05-25T00:55:09.260Z,98719.13
2023-05-25T00:57:37.987Z,98714.41
2023-05-25T01:00:11.290Z,98709.81
2023-05-25T01:02:38.285Z,98705.06
2023-05-25T01:05:06.526Z,98709.16
2023-05-25T01:07:34.766Z,98699.72
2023-05-25T01:10:02.842Z,98699.16
2023-05-25T01:12:30.502Z,98698.19
2023-05-25T01:14:57.194Z,98698.19
2023-05-25T01:17:26.451Z,98692.34
2023-05-25T01:20:08.966Z,98694.00
2023-05-25T01:22:47.199Z,98700.06
2023-05-25T01:25:24.071Z,98694.66
2023-05-25T01:28:02.704Z,98700.97
2023-05-25T01:30:30.465Z,98695.63
2023-05-25T01:32:59.357Z,98699.19
2023-05-25T01:35:27.263Z,98696.22
2023-05-25T01:37:54.064Z,98690.44
2023-05-25T01:40:20.776Z,98695.13
2023-05-25T01:42:48.187Z,98699.13
2023-05-25T01:45:15.328Z,98700.09
2023-05-25T01:48:06.451Z,98708.94
2023-05-25T01:50:55.902Z,98705.84
2023-05-25T01:53:27.113Z,98701.91
2023-05-25T01:56:00.868Z,98705.16
2023-05-25T01:58:34.576Z,98695.50
2023-05-25T02:01:04.230Z,98697.31
2023-05-25T02:03:31.127Z,98697.97
2023-05-25T02:05:58.104Z,98697.63
2023-05-25T02:08:24.802Z,98694.69
2023-05-25T02:10:51.448Z,98692.22
2023-05-25T02:13:18.134Z,98695.50
2023-05-25T02:15:45.015Z,98690.09
2023-05-25T02:18:13.697Z,98684.97
2023-05-25T02:20:40.453Z,98681.03
2023-05-25T02:23:07.103Z,98680.88
2023-05-25T02:25:33.666Z,98680.63
2023-05-25T02:28:00.879Z,98679.31
2023-05-25T02:30:27.876Z,98681.78
2023-05-25T02:32:57.591Z,98680.28
2023-05-25T02:35:24.276Z,98680.94
2023-05-25T02:37:51.265Z,98678.91
2023-05-25T02:40:18.096Z,98680.03
2023-05-25T02:42:44.920Z,98679.16
2023-05-25T02:45:11.781Z,98678.31
2023-05-25T02:47:40.198Z,98679.91
2023-05-25T02:50:07.265Z,98681.56
2023-05-25T02:52:39.841Z,98684.69
2023-05-25T02:55:07.521Z,98683.63
2023-05-25T02:57:38.911Z,98691.06
2023-05-25T03:00:07.803Z,98687.91
2023-05-25T03:02:35.217Z,98683.63
2023-05-25T03:05:04.192Z,98690.69
2023-05-25T03:07:31.752Z,98694.69
2023-05-25T03:09:59.489Z,98698.06
2023-05-25T03:12:26.189Z,98697.72
2023-05-25T03:14:52.892Z,98697.94
2023-05-25T03:17:21.145Z,98708.41
2023-05-25T03:19:48.054Z,98709.34
2023-05-25T03:22:14.678Z,98708.31
2023-05-25T03:24:41.612Z,98712.41
2023-05-25T03:27:09.131Z,98706.84
2023-05-25T03:29:35.937Z,98704.66
2023-05-25T03:32:02.829Z,98703.94
2023-05-25T03:34:30.633Z,98700.19
2023-05-25T03:36:57.318Z,98707.63
2023-05-25T03:39:23.984Z,98706.34
2023-05-25T03:41:52.250Z,98709.81
2023-05-25T03:44:19.085Z,98710.22
2023-05-25T03:46:46.038Z,98711.91
2023-05-25T03:49:14.185Z,98711.16
2023-05-25T03:51:42.165Z,98717.47
2023-05-25T03:54:08.994Z,98711.72
2023-05-25T03:56:35.729Z,98713.25
2023-05-25T03:59:05.072Z,98715.81
2023-05-25T04:01:31.687Z,98723.66
2023-05-25T04:03:58.590Z,98721.84
2023-05-25T04:06:30.046Z,98721.41
2023-05-25T04:08:57.977Z,98722.91
2023-05-25T04:11:27.547Z,98720.63
2023-05-25T04:13:54.006Z,98718.03
2023-05-25T04:16:22.017Z,98721.22
2023-05-25T04:18:48.880Z,98736.03
2023-05-25T04:21:16.656Z,98734.19
2023-05-25T04:23:43.512Z,98735.06
2023-05-25T04:26:10.867Z,98734.00
2023-05-25T04:28:43.381Z,98728.78
2023-05-25T04:31:29.505Z,98736.00
2023-05-25T04:34:29.648Z,98735.47
2023-05-25T04:37:21.867Z,98736.38
2023-05-25T04:39:49.045Z,98736.53
2023-05-25T04:42:17.036Z,98738.00
2023-05-25T04:44:43.633Z,98741.75
2023-05-25T04:47:13.864Z,98738.59
2023-05-25T04:49:40.501Z,98742.19
2023-05-25T04:52:10.627Z,98749.94
2023-05-25T04:54:38.136Z,98748.88
2023-05-25T04:57:04.988Z,98748.38
2023-05-25T04:59:32.011Z,98754.09
2023-05-25T05:01:59.694Z,98753.94
2023-05-25T05:04:30.166Z,98751.66
2023-05-25T05:06:58.962Z,98746.97
2023-05-25T05:09:27.599Z,98744.69
2023-05-25T05:11:56.575Z,98747.47
2023-05-25T05:14:23.126Z,98744.97
2023-05-25T05:16:49.837Z,98753.94
2023-05-25T05:19:16.437Z,98773.28
2023-05-25T05:21:43.403Z,98773.34
2023-05-25T05:24:10.153Z,98780.38
2023-05-25T05:26:55.416Z,98773.00
2023-05-25T05:29:28.121Z,98786.22
2023-05-25T05:31:57.675Z,98782.00
2023-05-25T05:34:25.156Z,98783.59
2023-05-25T05:36:58.263Z,98787.53
2023-05-25T05:39:27.236Z,98780.66
2023-05-25T05:41:54.977Z,98787.59
2023-05-25T05:44:23.408Z,98783.53
2023-05-25T05:46:51.312Z,98781.84
2023-05-25T05:49:17.904Z,98781.91
2023-05-25T05:51:44.803Z,98786.78
2023-05-25T05:54:11.415Z,98790.44
2023-05-25T05:56:38.020Z,98789.34
2023-05-25T05:59:04.572Z,98800.31
2023-05-25T06:01:31.546Z,98808.16
2023-05-25T06:03:58.129Z,98801.22
2023-05-25T06:06:25.548Z,98806.06
2023-05-25T06:08:52.353Z,98810.16
2023-05-25T06:11:18.947Z,98810.84
2023-05-25T06:13:46.783Z,98821.72
2023-05-25T06:16:14.691Z,98818.94
2023-05-25T06:18:41.274Z,98815.78
2023-05-25T06:21:12.642Z,98815.31
2023-05-25T06:23:39.683Z,98812.38
2023-05-25T06:26:07.060Z,98815.78
2023-05-25T06:28:33.721Z,98806.19
2023-05-25T06:31:00.579Z,98811.03
2023-05-25T06:33:27.709Z,98807.97
2023-05-25T06:35:58.241Z,98811.56
2023-05-25T06:38:24.996Z,98813.19
2023-05-25T06:40:51.537Z,98815.75
2023-05-25T06:43:18.203Z,98821.25
2023-05-25T06:45:58.203Z,98815.91
2023-05-25T06:48:25.039Z,98820.00
2023-05-25T06:50:52.110Z,98821.47
2023-05-25T06:53:19.985Z,98821.09
2023-05-25T06:55:46.678Z,98826.09
2023-05-25T06:58:13.648Z,98827.19
2023-05-25T07:00:40.162Z,98826.06
2023-05-25T07:03:06.709Z,98834.41
2023-05-25T07:05:33.326Z,98840.28
2023-05-25T07:07:59.846Z,98830.50
2023-05-25T07:10:26.862Z,98836.03
2023-05-25T07:12:53.575Z,98839.75
2023-05-25T07:15:21.646Z,98840.66
2023-05-25T07:17:48.402Z,98839.84
2023-05-25T07:20:15.101Z,98835.69
2023-05-25T07:22:43.504Z,98842.75
2023-05-25T07:25:10.114Z,98839.66
2023-05-25T07:27:36.651Z,98840.03
2023-05-25T07:30:03.726Z,98849.06
2023-05-25T07:32:30.503Z,98851.94
2023-05-25T07:34:57.063Z,98855.19
2023-05-25T07:37:24.042Z,98846.72
2023-05-25T07:39:50.589Z,98856.44
2023-05-25T07:42:20.987Z,98842.75
2023-05-25T07:44:48.625Z,98848.50
2023-05-25T07:47:15.379Z,98843.28
2023-05-25T07:49:41.916Z,98853.94
2023-05-25T07:52:09.107Z,98859.78
2023-05-25T07:54:39.876Z,98854.03
2023-05-25T07:57:07.179Z,98856.84
2023-05-25T07:59:33.974Z,98854.13
2023-05-25T08:02:00.548Z,98855.59
2023-05-25T08:04:34.003Z,98858.09
2023-05-25T08:07:01.489Z,98855.34
2023-05-25T08:09:31.254Z,98854.16
2023-05-25T08:12:09.315Z,98851.19
2023-05-25T08:14:44.332Z,98846.31
2023-05-25T08:17:10.961Z,98854.59
2023-05-25T08:19:37.644Z,98850.91
2023-05-25T08:22:04.402Z,98847.38
2023-05-25T08:24:31.326Z,98854.44
2023-05-25T08:26:57.908Z,98846.63
2023-05-25T08:29:24.601Z,98846.47
2023-05-25T08:31:51.301Z,98860.22
2023-05-25T08:34:18.186Z,98856.06
2023-05-25T08:36:45.051Z,98855.56
2023-05-25T08:39:11.863Z,98858.69
2023-05-25T08:41:42.856Z,98863.13
2023-05-25T08:44:10.248Z,98855.44
2023-05-25T08:46:36.860Z,98862.75
2023-05-25T08:49:13.209Z,98859.63
2023-05-25T08:51:49.793Z,98859.06
2023-05-25T08:54:29.744Z,98864.34
2023-05-25T08:57:02.889Z,98859.38
2023-05-25T08:59:32.658Z,98860.50
2023-05-25T09:02:11.341Z,98859.31
2023-05-25T09:04:38.324Z,98857.44
2023-05-25T09:07:10.426Z,98853.66
2023-05-25T09:09:38.843Z,98854.66
2023-05-25T09:12:08.858Z,98851.72
2023-05-25T09:14:37.783Z,98836.31
2023-05-25T09:17:04.772Z,98845.63
2023-05-25T09:19:31.299Z,98844.84
2023-05-25T09:22:13.418Z,98847.94
2023-05-25T09:24:48.751Z,98856.19
2023-05-25T09:27:21.893Z,98856.41
2023-05-25T09:29:49.316Z,98856.00
2023-05-25T09:32:17.196Z,98856.47
2023-05-25T09:34:45.044Z,98859.38
2023-05-25T09:37:20.935Z,98856.63
2023-05-25T09:39:48.021Z,98866.28
2023-05-25T09:42:15.018Z,98862.13
2023-05-25T09:44:42.795Z,98862.69
2023-05-25T09:47:09.788Z,98857.50
2023-05-25T09:49:36.595Z,98861.94
2023-05-25T09:52:03.451Z,98858.34
2023-05-25T09:54:30.290Z,98860.00
2023-05-25T09:56:56.873Z,98857.69
2023-05-25T09:59:23.603Z,98860.91
2023-05-25T10:01:53.821Z,98868.34
2023-05-25T10:04:20.875Z,98867.34
2023-05-25T10:06:49.761Z,98858.19
2023-05-25T10:09:16.665Z,98856.63
2023-05-25T10:11:43.331Z,98857.72
2023-05-25T10:14:09.823Z,98852.31
2023-05-25T10:16:36.808Z,98856.34
2023-05-25T10:19:03.309Z,98851.94
2023-05-25T10:21:29.831Z,98850.22
2023-05-25T10:23:58.737Z,98852.78
2023-05-25T10:26:26.745Z,98848.41
2023-05-25T10:28:59.291Z,98842.03
2023-05-25T10:31:28.272Z,98846.56
2023-05-25T10:33:54.909Z,98844.34
2023-05-25T10:36:21.347Z,98837.38
2023-05-25T10:38:47.803Z,98838.25
2023-05-25T10:41:14.289Z,98839.69
2023-05-25T10:43:41.173Z,98834.66
2023-05-25T10:46:10.208Z,98842.88
2023-05-25T10:48:40.036Z,98842.28
2023-05-25T10:51:11.877Z,98849.38
2023-05-25T10:53:38.630Z,98841.38
2023-05-25T10:56:05.768Z,98843.22
2023-05-25T10:58:34.206Z,98847.06
2023-05-25T11:01:01.688Z,98842.28
2023-05-25T11:03:47.059Z,98843.97
2023-05-25T11:06:23.356Z,98846.78
2023-05-25T11:08:59.781Z,98838.63
2023-05-25T11:11:45.800Z,98847.28
2023-05-25T11:14:21.536Z,98835.91
2023-05-25T11:17:11.561Z,98831.00
2023-05-25T11:19:45.518Z,98834.38
2023-05-25T11:22:17.772Z,98836.94
2023-05-25T11:24:45.155Z,98835.41
2023-05-25T11:27:12.014Z,98843.78
2023-05-25T11:32:05.774Z,98831.41
2023-05-25T11:34:32.264Z,98829.81
2023-05-25T11:37:01.737Z,98829.44
2023-05-25T11:39:28.625Z,98821.97
2023-05-25T11:41:56.104Z,98828.09
2023-05-25T11:44:29.319Z,98816.38
2023-05-25T11:46:57.133Z,98825.47
2023-05-25T11:49:25.441Z,98821.19
2023-05-25T11:52:04.934Z,98816.69
2023-05-25T11:54:31.500Z,98821.47
2023-05-25T11:56:59.932Z,98823.16
2023-05-25T11:59:29.629Z,98820.81
2023-05-25T12:02:02.502Z,98822.78
2023-05-25T12:04:30.018Z,98822.28
2023-05-25T12:07:08.849Z,98823.59
2023-05-25T12:09:36.967Z,98820.53
2023-05-25T12:12:04.154Z,98826.28
2023-05-25T12:14:31.009Z,98828.19
2023-05-25T12:16:57.839Z,98820.44
2023-05-25T12:19:24.530Z,98825.53
2023-05-25T12:21:51.716Z,98824.06
2023-05-25T12:24:18.938Z,98821.47
2023-05-25T12:26:57.372Z,98817.41
2023-05-25T12:29:25.582Z,98819.84
2023-05-25T12:31:52.865Z,98821.97
2023-05-25T12:34:20.141Z,98815.50
2023-05-25T12:36:53.216Z,98819.47
2023-05-25T12:39:31.776Z,98816.69
2023-05-25T12:41:59.713Z,98820.41
2023-05-25T12:44:32.260Z,98815.28
2023-05-25T12:47:23.254Z,98818.31
2023-05-25T12:49:51.351Z,98814.69
2023-05-25T12:52:38.308Z,98810.63
2023-05-25T12:55:21.147Z,98811.59
2023-05-25T12:57:52.411Z,98814.78
2023-05-25T13:00:27.074Z,98818.59
2023-05-25T13:02:54.486Z,98818.91
2023-05-25T13:05:32.952Z,98818.88
2023-05-25T13:08:00.003Z,98811.66
2023-05-25T13:10:28.864Z,98829.31
2023-05-25T13:12:58.327Z,98812.41
2023-05-25T13:15:26.862Z,98811.34
2023-05-25T13:17:54.306Z,98814.47
2023-05-25T13:20:21.901Z,98815.94
2023-05-25T13:22:50.223Z,98813.78
2023-05-25T13:25:17.177Z,98809.16
2023-05-25T13:27:45.718Z,98810.41
2023-05-25T13:30:13.172Z,98805.38
2023-05-25T13:32:40.381Z,98799.06
2023-05-25T13:35:07.896Z,98801.09
2023-05-25T13:37:34.349Z,98802.84
2023-05-25T13:40:00.997Z,98803.94
2023-05-25T13:42:31.523Z,98804.44
2023-05-25T13:44:58.222Z,98795.91
2023-05-25T13:47:25.108Z,98801.13
2023-05-25T13:49:52.001Z,98804.66
2023-05-25T13:52:18.557Z,98804.34
2023-05-25T13:54:45.462Z,98799.81
2023-05-25T13:57:12.021Z,98801.66
2023-05-25T13:59:38.938Z,98801.94
2023-05-25T14:02:05.981Z,98803.72
2023-05-25T14:04:32.953Z,98796.72
2023-05-25T14:06:59.751Z,98799.84
2023-05-25T14:09:26.435Z,98802.16
2023-05-25T14:11:53.560Z,98801.94
2023-05-25T14:14:30.812Z,98793.56
2023-05-25T14:16:59.822Z,98797.38
2023-05-25T14:19:26.404Z,98794.72
2023-05-25T14:22:11.086Z,98795.25
2023-05-25T14:24:38.859Z,98790.94
2023-05-25T14:27:07.407Z,98789.28
2023-05-25T14:29:34.422Z,98791.25
2023-05-25T14:32:01.499Z,98781.34
2023-05-25T14:34:28.662Z,98783.72
2023-05-25T14:36:55.873Z,98795.66
2023-05-25T14:39:22.443Z,98788.44
2023-05-25T14:41:48.987Z,98794.44
2023-05-25T14:44:16.447Z,98796.06
2023-05-25T14:46:43.634Z,98800.88
2023-05-25T14:49:10.448Z,98784.16
2023-05-25T14:51:37.835Z,98795.66
2023-05-25T14:54:06.220Z,98792.03
2023-05-25T14:56:32.823Z,98800.13
2023-05-25T14:58:59.346Z,98797.88
2023-05-25T15:01:26.127Z,98805.59
2023-05-25T15:03:53.033Z,98788.72
2023-05-25T15:06:19.752Z,98793.63
2023-05-25T15:08:46.352Z,98797.03
2023-05-25T15:11:12.913Z,98796.50
2023-05-25T15:13:40.925Z,98791.28
2023-05-25T15:16:11.166Z,98790.72
2023-05-25T15:18:37.823Z,98795.09
2023-05-25T15:21:04.737Z,98799.28
2023-05-25T15:23:31.984Z,98795.13
2023-05-25T15:26:03.055Z,98793.72
2023-05-25T15:28:33.019Z,98789.50
2023-05-25T15:31:02.531Z,98788.78
2023-05-25T15:33:44.125Z,98784.75
2023-05-25T15:36:15.092Z,98788.06
2023-05-25T15:38:43.245Z,98792.50
2023-05-25T15:41:10.266Z,98791.88
2023-05-25T15:43:36.859Z,98788.22
2023-05-25T15:46:03.435Z,98788.63
2023-05-25T15:48:30.012Z,98782.13
2023-05-25T15:50:56.543Z,98781.03
2023-05-25T15:53:23.086Z,98781.81
2023-05-25T15:55:49.640Z,98775.66
2023-05-25T15:58:17.690Z,98778.13
2023-05-25T16:00:44.602Z,98774.84
2023-05-25T16:03:11.423Z,98773.66
2023-05-25T16:05:38.140Z,98782.84
2023-05-25T16:08:04.708Z,98780.19
2023-05-25T16:10:31.344Z,98779.75
2023-05-25T16:12:57.793Z,98781.13
2023-05-25T16:15:24.285Z,98776.38
2023-05-25T16:17:50.849Z,98782.59
2023-05-25T16:20:17.491Z,98781.75
2023-05-25T16:22:43.963Z,98779.38
2023-05-25T16:25:10.757Z,98777.38
2023-05-25T16:27:37.453Z,98783.66
2023-05-25T16:30:04.238Z,98782.28
2023-05-25T16:32:31.027Z,98787.66
2023-05-25T16:34:57.486Z,98779.88
2023-05-25T16:37:23.956Z,98779.09
2023-05-25T16:39:50.442Z,98776.69
2023-05-25T16:42:16.922Z,98778.22
2023-05-25T16:44:43.409Z,98775.13
2023-05-25T16:47:10.232Z,98770.88
2023-05-25T16:49:37.075Z,98774.53
2023-05-25T16:52:05.507Z,98770.16
2023-05-25T16:54:31.941Z,98769.81
2023-05-25T16:56:58.383Z,98766.13
2023-05-25T16:59:24.852Z,98770.91
2023-05-25T17:01:51.982Z,98771.44
2023-05-25T17:04:18.467Z,98774.94
2023-05-25T17:06:44.928Z,98772.91
2023-05-25T17:09:11.960Z,98772.63
2023-05-25T17:11:38.753Z,98765.69
2023-05-25T17:14:05.750Z,98761.94
2023-05-25T17:16:32.277Z,98764.41
2023-05-25T17:18:58.714Z,98772.72
2023-05-25T17:21:25.333Z,98776.38
2023-05-25T17:23:52.146Z,98773.25
2023-05-25T17:26:18.626Z,98771.53
2023-05-25T17:28:45.153Z,98772.00
2023-05-25T17:31:11.599Z,98775.44
2023-05-25T17:33:39.151Z,98764.94
2023-05-25T17:36:05.950Z,98768.81
2023-05-25T17:38:34.362Z,98773.13
2023-05-25T17:41:00.904Z,98779.94
2023-05-25T17:43:27.455Z,98776.84
2023-05-25T17:45:53.938Z,98779.09
2023-05-25T17:48:20.516Z,98782.78
2023-05-25T17:50:47.013Z,98777.66
2023-05-25T17:53:13.483Z,98781.97
2023-05-25T17:55:42.141Z,98784.47
2023-05-25T17:58:08.773Z,98784.47
2023-05-25T18:00:35.280Z,98776.09
2023-05-25T18:03:01.856Z,98776.50
2023-05-25T18:05:28.485Z,98786.03
2023-05-25T18:07:54.944Z,98792.94
2023-05-25T18:10:21.408Z,98794.19
2023-05-25T18:12:52.051Z,98792.63
2023-05-25T18:15:18.714Z,98796.81
2023-05-25T18:17:45.205Z,98798.28
2023-05-25T18:20:11.761Z,98799.34
2023-05-25T18:22:38.337Z,98797.56
2023-05-25T18:25:05.104Z,98803.59
2023-05-25T18:27:33.440Z,98792.31
2023-05-25T18:29:59.980Z,98799.97
2023-05-25T18:32:26.428Z,98807.19
2023-05-25T18:34:54.697Z,98802.78
2023-05-25T18:37:23.274Z,98806.53
2023-05-25T18:39:49.997Z,98808.84
2023-05-25T18:42:16.468Z,98809.28
2023-05-25T18:44:42.937Z,98810.72
2023-05-25T18:47:12.182Z,98810.00
2023-05-25T18:49:38.823Z,98809.69
2023-05-25T18:52:06.481Z,98810.41
2023-05-25T18:54:32.982Z,98813.22
2023-05-25T18:56:59.729Z,98813.53
2023-05-25T18:59:26.173Z,98817.41
2023-05-25T19:01:52.716Z,98804.22
2023-05-25T19:04:19.269Z,98803.69
2023-05-25T19:06:46.565Z,98819.38
2023-05-25T19:09:13.610Z,98817.19
2023-05-25T19:11:40.032Z,98819.47
2023-05-25T19:14:06.561Z,98821.66
2023-05-25T19:16:33.102Z,98822.19
2023-05-25T19:18:59.605Z,98830.34
2023-05-25T19:21:26.768Z,98828.97
2023-05-25T19:23:53.447Z,98833.56
2023-05-25T19:26:19.889Z,98836.41
2023-05-25T19:28:46.389Z,98843.47
2023-05-25T19:31:12.913Z,98826.78
2023-05-25T19:33:39.369Z,98843.47
2023-05-25T19:36:06.259Z,98837.09
2023-05-25T19:38:41.290Z,98849.63
2023-05-25T19:41:08.824Z,98840.16
2023-05-25T19:43:36.162Z,98847.84
2023-05-25T19:46:03.125Z,98845.66
2023-05-25T19:48:29.810Z,98847.25
2023-05-25T19:50:56.307Z,98849.97
2023-05-25T19:53:23.081Z,98853.38
2023-05-25T19:55:49.559Z,98852.22
2023-05-25T19:58:15.991Z,98850.66
2023-05-25T20:00:42.464Z,98853.50
2023-05-25T20:03:09.133Z,98854.13
2023-05-25T20:05:36.234Z,98859.38
2023-05-25T20:08:03.610Z,98856.91
2023-05-25T20:10:30.265Z,98868.44
2023-05-25T20:12:56.773Z,98867.09
2023-05-25T20:15:23.215Z,98865.50
2023-05-25T20:17:49.752Z,98864.75
2023-05-25T20:20:16.629Z,98860.00
2023-05-25T20:22:43.185Z,98859.38
2023-05-25T20:25:09.716Z,98865.00
2023-05-25T20:27:36.352Z,98859.16
2023-05-25T20:30:02.984Z,98867.97
2023-05-25T20:32:29.663Z,98875.78
2023-05-25T20:34:56.184Z,98866.50
2023-05-25T20:37:22.742Z,98873.34
2023-05-25T20:39:49.369Z,98876.78
2023-05-25T20:42:15.892Z,98882.41
2023-05-25T20:44:42.425Z,98879.97
2023-05-25T20:47:08.999Z,98880.97
2023-05-25T20:49:35.662Z,98883.66
2023-05-25T20:52:02.593Z,98884.03
2023-05-25T20:54:29.163Z,98887.47
2023-05-25T20:56:55.903Z,98882.19
2023-05-25T20:59:23.333Z,98886.47
2023-05-25T21:01:49.906Z,98882.19
2023-05-25T21:04:16.810Z,98885.63
2023-05-25T21:06:43.618Z,98881.81
2023-05-25T21:09:10.572Z,98888.91
2023-05-25T21:11:37.153Z,98884.34
2023-05-25T21:14:03.767Z,98886.91
2023-05-25T21:16:30.776Z,98885.81
2023-05-25T21:18:57.585Z,98884.81
2023-05-25T21:21:24.322Z,98888.56
2023-05-25T21:23:50.847Z,98893.22
2023-05-25T21:26:17.388Z,98891.06
2023-05-25T21:28:43.943Z,98895.94
2023-05-25T21:31:10.556Z,98896.56
2023-05-25T21:33:37.724Z,98897.41
2023-05-25T21:36:04.277Z,98894.47
2023-05-25T21:38:30.827Z,98897.34
2023-05-25T21:40:58.689Z,98889.66
2023-05-25T21:43:28.260Z,98894.88
2023-05-25T21:45:54.836Z,98897.84
2023-05-25T21:48:22.264Z,98908.81
2023-05-25T21:50:52.571Z,98911.22
2023-05-25T21:53:19.932Z,98903.13
2023-05-25T21:55:47.436Z,98906.81
2023-05-25T21:58:14.827Z,98909.09
2023-05-25T22:00:41.447Z,98914.72
2023-05-25T22:03:08.306Z,98920.41
2023-05-25T22:05:35.245Z,98922.47
2023-05-25T22:08:02.972Z,98917.91
2023-05-25T22:10:29.843Z,98924.28
2023-05-25T22:12:56.680Z,98920.31
2023-05-25T22:15:23.760Z,98920.66
2023-05-25T22:17:50.482Z,98923.47
2023-05-25T22:20:18.179Z,98918.53
2023-05-25T22:22:45.072Z,98930.16
2023-05-25T22:25:11.929Z,98921.59
2023-05-25T22:27:39.220Z,98928.38
2023-05-25T22:30:06.898Z,98923.34
2023-05-25T22:32:33.453Z,98923.53
2023-05-25T22:35:00.024Z,98922.19
2023-05-25T22:37:26.563Z,98926.34
2023-05-25T22:39:53.107Z,98926.19
2023-05-25T22:42:19.680Z,98928.28
2023-05-25T22:44:46.225Z,98928.13
2023-05-25T22:47:13.368Z,98937.69
2023-05-25T22:49:43.958Z,98928.97
2023-05-25T22:52:10.946Z,98931.06
2023-05-25T22:54:37.598Z,98932.19
2023-05-25T22:57:04.246Z,98940.63
2023-05-25T22:59:30.760Z,98941.09
2023-05-25T23:01:57.302Z,98941.94
2023-05-25T23:04:23.883Z,98938.28
2023-05-25T23:06:50.455Z,98944.94
2023-05-25T23:09:17.022Z,98943.94
2023-05-25T23:11:44.003Z,98944.66
2023-05-25T23:14:13.118Z,98947.25
2023-05-25T23:16:39.722Z,98942.75
2023-05-25T23:19:06.592Z,98948.22
2023-05-25T23:21:33.611Z,98942.59
2023-05-25T23:24:00.391Z,98941.25
2023-05-25T23:26:26.985Z,98934.22
2023-05-25T23:28:53.680Z,98931.09
2023-05-25T23:31:21.269Z,98938.53
2023-05-25T23:33:47.825Z,98937.16
2023-05-25T23:36:14.985Z,98936.44
2023-05-25T23:38:41.879Z,98940.56
2023-05-25T23:41:08.423Z,98941.78
2023-05-25T23:43:34.981Z,98935.47
2023-05-25T23:46:02.363Z,98944.09
2023-05-25T23:48:29.024Z,98941.81
2023-05-25T23:50:55.737Z,98949.34
2023-05-25T23:53:22.376Z,98946.41
2023-05-25T23:55:48.962Z,98944.47
2023-05-25T23:58:15.633Z,98948.47
